sensor_id;sensor_type;location;lat;lon;timestamp;temperature;humidity
65087;DHT22;52094;51.234;-2.310;2022-10-16T00:01:12;12.70;69.90
65087;DHT22;52094;51.234;-2.310;2022-10-16T00:04:55;12.70;70.00
65087;DHT22;52094;51.234;-2.310;2022-10-16T00:08:38;12.70;69.90
65087;DHT22;52094;51.234;-2.310;2022-10-16T00:12:20;12.80;69.90
65087;DHT22;52094;51.234;-2.310;2022-10-16T00:16:03;12.80;69.60
65087;DHT22;52094;51.234;-2.310;2022-10-16T00:19:45;12.80;69.40
65087;DHT22;52094;51.234;-2.310;2022-10-16T00:23:27;12.80;69.40
65087;DHT22;52094;51.234;-2.310;2022-10-16T00:27:09;12.70;69.30
65087;DHT22;52094;51.234;-2.310;2022-10-16T00:30:51;12.70;69.20
65087;DHT22;52094;51.234;-2.310;2022-10-16T00:34:34;12.70;69.20
65087;DHT22;52094;51.234;-2.310;2022-10-16T00:38:16;12.60;69.30
65087;DHT22;52094;51.234;-2.310;2022-10-16T00:41:58;12.50;69.10
65087;DHT22;52094;51.234;-2.310;2022-10-16T00:45:41;12.50;69.00
65087;DHT22;52094;51.234;-2.310;2022-10-16T00:49:23;12.50;68.90
65087;DHT22;52094;51.234;-2.310;2022-10-16T00:53:05;12.50;68.80
65087;DHT22;52094;51.234;-2.310;2022-10-16T00:56:48;12.40;68.60
65087;DHT22;52094;51.234;-2.310;2022-10-16T01:00:31;12.40;68.40
65087;DHT22;52094;51.234;-2.310;2022-10-16T01:04:13;12.40;68.20
65087;DHT22;52094;51.234;-2.310;2022-10-16T01:08:04;12.30;68.10
65087;DHT22;52094;51.234;-2.310;2022-10-16T01:12:20;12.20;68.10
65087;DHT22;52094;51.234;-2.310;2022-10-16T01:16:09;12.20;68.10
65087;DHT22;52094;51.234;-2.310;2022-10-16T01:28:05;12.20;68.20
65087;DHT22;52094;51.234;-2.310;2022-10-16T01:31:56;12.10;68.30
65087;DHT22;52094;51.234;-2.310;2022-10-16T01:35:43;12.00;68.50
65087;DHT22;52094;51.234;-2.310;2022-10-16T01:39:31;12.00;68.60
65087;DHT22;52094;51.234;-2.310;2022-10-16T01:43:36;11.90;68.70
65087;DHT22;52094;51.234;-2.310;2022-10-16T01:47:22;11.90;69.00
65087;DHT22;52094;51.234;-2.310;2022-10-16T01:51:11;11.80;68.90
65087;DHT22;52094;51.234;-2.310;2022-10-16T01:54:55;11.80;69.30
65087;DHT22;52094;51.234;-2.310;2022-10-16T01:58:45;11.70;69.10
65087;DHT22;52094;51.234;-2.310;2022-10-16T02:02:30;11.70;69.00
65087;DHT22;52094;51.234;-2.310;2022-10-16T02:06:12;11.70;69.60
65087;DHT22;52094;51.234;-2.310;2022-10-16T02:09:55;11.60;69.30
65087;DHT22;52094;51.234;-2.310;2022-10-16T02:13:54;11.60;69.30
65087;DHT22;52094;51.234;-2.310;2022-10-16T02:17:37;11.40;69.90
65087;DHT22;52094;51.234;-2.310;2022-10-16T02:21:29;11.40;69.70
65087;DHT22;52094;51.234;-2.310;2022-10-16T02:25:15;11.30;69.90
65087;DHT22;52094;51.234;-2.310;2022-10-16T02:29:02;11.20;69.90
65087;DHT22;52094;51.234;-2.310;2022-10-16T02:32:48;11.20;69.80
65087;DHT22;52094;51.234;-2.310;2022-10-16T02:36:32;11.10;70.00
65087;DHT22;52094;51.234;-2.310;2022-10-16T02:40:15;11.00;70.10
65087;DHT22;52094;51.234;-2.310;2022-10-16T02:44:02;11.00;70.60
65087;DHT22;52094;51.234;-2.310;2022-10-16T02:47:44;11.00;70.70
65087;DHT22;52094;51.234;-2.310;2022-10-16T02:51:26;11.00;70.60
65087;DHT22;52094;51.234;-2.310;2022-10-16T02:55:08;11.00;70.80
65087;DHT22;52094;51.234;-2.310;2022-10-16T02:58:50;10.90;70.80
65087;DHT22;52094;51.234;-2.310;2022-10-16T03:02:32;10.90;70.70
65087;DHT22;52094;51.234;-2.310;2022-10-16T03:06:15;10.90;70.90
65087;DHT22;52094;51.234;-2.310;2022-10-16T03:09:57;10.90;70.80
65087;DHT22;52094;51.234;-2.310;2022-10-16T03:13:41;10.80;70.90
65087;DHT22;52094;51.234;-2.310;2022-10-16T03:17:24;10.80;70.80
65087;DHT22;52094;51.234;-2.310;2022-10-16T03:21:07;10.90;70.80
65087;DHT22;52094;51.234;-2.310;2022-10-16T03:24:49;10.90;70.70
65087;DHT22;52094;51.234;-2.310;2022-10-16T03:28:32;10.80;70.80
65087;DHT22;52094;51.234;-2.310;2022-10-16T03:32:14;10.80;70.70
65087;DHT22;52094;51.234;-2.310;2022-10-16T03:35:56;10.70;70.90
65087;DHT22;52094;51.234;-2.310;2022-10-16T03:39:38;10.80;70.80
65087;DHT22;52094;51.234;-2.310;2022-10-16T03:43:20;10.80;70.70
65087;DHT22;52094;51.234;-2.310;2022-10-16T03:47:02;10.80;70.80
65087;DHT22;52094;51.234;-2.310;2022-10-16T03:50:44;10.70;70.80
65087;DHT22;52094;51.234;-2.310;2022-10-16T03:54:27;10.70;71.00
65087;DHT22;52094;51.234;-2.310;2022-10-16T03:58:10;10.70;71.00
65087;DHT22;52094;51.234;-2.310;2022-10-16T04:01:52;10.70;71.00
65087;DHT22;52094;51.234;-2.310;2022-10-16T04:05:34;10.70;70.90
65087;DHT22;52094;51.234;-2.310;2022-10-16T04:09:16;10.70;71.00
65087;DHT22;52094;51.234;-2.310;2022-10-16T04:12:58;10.70;71.00
65087;DHT22;52094;51.234;-2.310;2022-10-16T04:16:40;10.70;71.10
65087;DHT22;52094;51.234;-2.310;2022-10-16T04:20:22;10.70;71.10
65087;DHT22;52094;51.234;-2.310;2022-10-16T04:24:05;10.70;71.10
65087;DHT22;52094;51.234;-2.310;2022-10-16T04:27:47;10.70;71.00
65087;DHT22;52094;51.234;-2.310;2022-10-16T04:31:29;10.60;70.80
65087;DHT22;52094;51.234;-2.310;2022-10-16T04:35:11;10.60;70.70
65087;DHT22;52094;51.234;-2.310;2022-10-16T04:38:53;10.50;70.70
65087;DHT22;52094;51.234;-2.310;2022-10-16T04:42:35;10.40;70.80
65087;DHT22;52094;51.234;-2.310;2022-10-16T04:46:17;10.30;71.00
65087;DHT22;52094;51.234;-2.310;2022-10-16T04:49:59;10.20;71.20
65087;DHT22;52094;51.234;-2.310;2022-10-16T04:53:43;10.20;71.30
65087;DHT22;52094;51.234;-2.310;2022-10-16T04:57:26;10.10;71.30
65087;DHT22;52094;51.234;-2.310;2022-10-16T05:01:09;10.00;71.40
65087;DHT22;52094;51.234;-2.310;2022-10-16T05:04:51;9.90;71.30
65087;DHT22;52094;51.234;-2.310;2022-10-16T05:08:33;9.90;71.70
65087;DHT22;52094;51.234;-2.310;2022-10-16T05:12:15;9.80;71.60
65087;DHT22;52094;51.234;-2.310;2022-10-16T05:15:57;9.70;71.50
65087;DHT22;52094;51.234;-2.310;2022-10-16T05:19:39;9.70;71.50
65087;DHT22;52094;51.234;-2.310;2022-10-16T05:23:21;9.60;71.70
65087;DHT22;52094;51.234;-2.310;2022-10-16T05:27:03;9.50;71.70
65087;DHT22;52094;51.234;-2.310;2022-10-16T05:30:45;9.40;72.20
65087;DHT22;52094;51.234;-2.310;2022-10-16T05:34:28;9.50;72.40
65087;DHT22;52094;51.234;-2.310;2022-10-16T05:38:10;9.60;72.50
65087;DHT22;52094;51.234;-2.310;2022-10-16T05:41:52;9.70;72.90
65087;DHT22;52094;51.234;-2.310;2022-10-16T05:45:34;9.80;72.40
65087;DHT22;52094;51.234;-2.310;2022-10-16T05:49:16;9.80;72.80
65087;DHT22;52094;51.234;-2.310;2022-10-16T05:52:58;9.90;72.80
65087;DHT22;52094;51.234;-2.310;2022-10-16T05:56:40;9.90;73.10
65087;DHT22;52094;51.234;-2.310;2022-10-16T06:00:22;10.00;72.80
65087;DHT22;52094;51.234;-2.310;2022-10-16T06:04:04;10.00;73.20
65087;DHT22;52094;51.234;-2.310;2022-10-16T06:07:46;10.00;72.80
65087;DHT22;52094;51.234;-2.310;2022-10-16T06:11:31;10.00;72.50
65087;DHT22;52094;51.234;-2.310;2022-10-16T06:15:13;10.00;72.90
65087;DHT22;52094;51.234;-2.310;2022-10-16T06:18:56;10.00;72.80
65087;DHT22;52094;51.234;-2.310;2022-10-16T06:22:38;10.00;72.60
65087;DHT22;52094;51.234;-2.310;2022-10-16T06:26:22;10.00;72.60
65087;DHT22;52094;51.234;-2.310;2022-10-16T06:30:05;9.90;72.50
65087;DHT22;52094;51.234;-2.310;2022-10-16T06:33:51;9.90;72.50
65087;DHT22;52094;51.234;-2.310;2022-10-16T06:37:33;9.80;72.60
65087;DHT22;52094;51.234;-2.310;2022-10-16T06:41:18;9.70;72.70
65087;DHT22;52094;51.234;-2.310;2022-10-16T06:45:01;9.70;72.80
65087;DHT22;52094;51.234;-2.310;2022-10-16T06:48:43;9.70;73.00
65087;DHT22;52094;51.234;-2.310;2022-10-16T06:52:28;9.60;73.20
65087;DHT22;52094;51.234;-2.310;2022-10-16T06:56:15;9.60;73.40
65087;DHT22;52094;51.234;-2.310;2022-10-16T06:59:57;9.50;73.60
65087;DHT22;52094;51.234;-2.310;2022-10-16T07:03:41;9.60;73.90
65087;DHT22;52094;51.234;-2.310;2022-10-16T07:07:23;9.60;74.00
65087;DHT22;52094;51.234;-2.310;2022-10-16T07:11:08;9.70;74.30
65087;DHT22;52094;51.234;-2.310;2022-10-16T07:14:50;9.70;74.10
65087;DHT22;52094;51.234;-2.310;2022-10-16T07:18:34;9.70;74.10
65087;DHT22;52094;51.234;-2.310;2022-10-16T07:22:16;9.80;74.10
65087;DHT22;52094;51.234;-2.310;2022-10-16T07:25:58;9.80;74.00
65087;DHT22;52094;51.234;-2.310;2022-10-16T07:29:40;9.80;74.20
65087;DHT22;52094;51.234;-2.310;2022-10-16T07:33:22;9.90;74.40
65087;DHT22;52094;51.234;-2.310;2022-10-16T07:37:04;10.10;74.60
65087;DHT22;52094;51.234;-2.310;2022-10-16T07:40:46;10.20;74.50
65087;DHT22;52094;51.234;-2.310;2022-10-16T07:44:29;10.20;74.70
65087;DHT22;52094;51.234;-2.310;2022-10-16T07:48:11;10.40;75.00
65087;DHT22;52094;51.234;-2.310;2022-10-16T07:51:53;10.60;74.50
65087;DHT22;52094;51.234;-2.310;2022-10-16T07:55:35;10.80;75.10
65087;DHT22;52094;51.234;-2.310;2022-10-16T07:59:17;11.00;75.10
65087;DHT22;52094;51.234;-2.310;2022-10-16T08:03:00;11.20;74.20
65087;DHT22;52094;51.234;-2.310;2022-10-16T08:06:42;11.20;73.90
65087;DHT22;52094;51.234;-2.310;2022-10-16T08:10:27;11.30;73.70
65087;DHT22;52094;51.234;-2.310;2022-10-16T08:14:09;11.30;73.90
65087;DHT22;52094;51.234;-2.310;2022-10-16T08:18:00;11.50;73.80
65087;DHT22;52094;51.234;-2.310;2022-10-16T08:21:42;11.60;73.80
65087;DHT22;52094;51.234;-2.310;2022-10-16T08:25:25;11.70;73.60
65087;DHT22;52094;51.234;-2.310;2022-10-16T08:29:07;11.80;73.50
65087;DHT22;52094;51.234;-2.310;2022-10-16T08:32:49;12.00;73.80
65087;DHT22;52094;51.234;-2.310;2022-10-16T08:36:31;12.20;73.40
65087;DHT22;52094;51.234;-2.310;2022-10-16T08:40:23;12.30;73.40
65087;DHT22;52094;51.234;-2.310;2022-10-16T08:52:11;12.80;72.70
65087;DHT22;52094;51.234;-2.310;2022-10-16T08:55:55;13.00;72.40
65087;DHT22;52094;51.234;-2.310;2022-10-16T08:59:37;13.20;72.60
65087;DHT22;52094;51.234;-2.310;2022-10-16T09:03:58;13.30;72.70
65087;DHT22;52094;51.234;-2.310;2022-10-16T09:16:24;13.90;72.00
65087;DHT22;52094;51.234;-2.310;2022-10-16T09:20:23;14.20;71.50
65087;DHT22;52094;51.234;-2.310;2022-10-16T09:24:20;14.40;71.10
65087;DHT22;52094;51.234;-2.310;2022-10-16T09:28:09;15.00;71.30
65087;DHT22;52094;51.234;-2.310;2022-10-16T09:31:53;16.20;74.20
65087;DHT22;52094;51.234;-2.310;2022-10-16T09:35:39;17.90;74.70
65087;DHT22;52094;51.234;-2.310;2022-10-16T09:39:22;19.70;73.20
65087;DHT22;52094;51.234;-2.310;2022-10-16T09:50:59;24.20;64.10
65087;DHT22;52094;51.234;-2.310;2022-10-16T09:58:33;26.60;56.60
65087;DHT22;52094;51.234;-2.310;2022-10-16T10:02:23;27.30;60.90
65087;DHT22;52094;51.234;-2.310;2022-10-16T10:06:33;27.80;58.20
65087;DHT22;52094;51.234;-2.310;2022-10-16T10:10:25;28.50;51.70
65087;DHT22;52094;51.234;-2.310;2022-10-16T10:18:21;29.80;45.40
65087;DHT22;52094;51.234;-2.310;2022-10-16T10:22:24;30.50;51.10
65087;DHT22;52094;51.234;-2.310;2022-10-16T10:26:19;30.80;45.00
65087;DHT22;52094;51.234;-2.310;2022-10-16T10:30:22;31.00;44.50
65087;DHT22;52094;51.234;-2.310;2022-10-16T10:35:28;30.90;43.90
65087;DHT22;52094;51.234;-2.310;2022-10-16T10:38:59;31.00;41.00
65087;DHT22;52094;51.234;-2.310;2022-10-16T10:43:32;31.20;42.00
65087;DHT22;52094;51.234;-2.310;2022-10-16T10:47:30;31.20;42.50
65087;DHT22;52094;51.234;-2.310;2022-10-16T10:51:23;30.70;40.20
65087;DHT22;52094;51.234;-2.310;2022-10-16T11:02:55;26.20;45.50
65087;DHT22;52094;51.234;-2.310;2022-10-16T11:06:46;25.70;44.80
65087;DHT22;52094;51.234;-2.310;2022-10-16T11:14:31;25.80;44.60
65087;DHT22;52094;51.234;-2.310;2022-10-16T11:18:48;25.60;45.60
65087;DHT22;52094;51.234;-2.310;2022-10-16T11:22:48;25.30;44.60
65087;DHT22;52094;51.234;-2.310;2022-10-16T11:26:36;25.20;44.00
65087;DHT22;52094;51.234;-2.310;2022-10-16T11:30:29;24.80;45.30
65087;DHT22;52094;51.234;-2.310;2022-10-16T11:38:12;24.90;42.80
65087;DHT22;52094;51.234;-2.310;2022-10-16T11:42:10;24.60;45.40
65087;DHT22;52094;51.234;-2.310;2022-10-16T11:45:55;24.10;46.00
65087;DHT22;52094;51.234;-2.310;2022-10-16T11:49:40;23.10;47.10
65087;DHT22;52094;51.234;-2.310;2022-10-16T11:53:34;22.20;49.10
65087;DHT22;52094;51.234;-2.310;2022-10-16T11:57:26;22.60;50.20
65087;DHT22;52094;51.234;-2.310;2022-10-16T12:05:41;22.40;45.70
65087;DHT22;52094;51.234;-2.310;2022-10-16T12:09:31;21.50;47.50
65087;DHT22;52094;51.234;-2.310;2022-10-16T12:13:36;20.80;49.90
65087;DHT22;52094;51.234;-2.310;2022-10-16T12:17:34;20.60;49.50
65087;DHT22;52094;51.234;-2.310;2022-10-16T12:21:17;20.70;50.60
65087;DHT22;52094;51.234;-2.310;2022-10-16T12:25:00;21.10;49.90
65087;DHT22;52094;51.234;-2.310;2022-10-16T12:28:42;21.20;49.30
65087;DHT22;52094;51.234;-2.310;2022-10-16T12:32:35;21.20;49.50
65087;DHT22;52094;51.234;-2.310;2022-10-16T12:36:34;21.20;49.10
65087;DHT22;52094;51.234;-2.310;2022-10-16T12:40:29;21.10;49.20
65087;DHT22;52094;51.234;-2.310;2022-10-16T12:44:24;21.20;48.60
65087;DHT22;52094;51.234;-2.310;2022-10-16T12:48:21;21.20;48.20
65087;DHT22;52094;51.234;-2.310;2022-10-16T13:08:24;21.10;50.10
65087;DHT22;52094;51.234;-2.310;2022-10-16T13:12:26;20.50;49.60
65087;DHT22;52094;51.234;-2.310;2022-10-16T13:16:13;20.00;50.50
65087;DHT22;52094;51.234;-2.310;2022-10-16T13:28:00;19.40;51.60
65087;DHT22;52094;51.234;-2.310;2022-10-16T13:31:43;19.30;52.00
65087;DHT22;52094;51.234;-2.310;2022-10-16T13:35:31;19.20;51.50
65087;DHT22;52094;51.234;-2.310;2022-10-16T13:43:08;19.10;51.60
65087;DHT22;52094;51.234;-2.310;2022-10-16T13:47:01;18.90;51.30
65087;DHT22;52094;51.234;-2.310;2022-10-16T13:51:18;18.70;51.20
65087;DHT22;52094;51.234;-2.310;2022-10-16T13:55:00;18.40;51.60
65087;DHT22;52094;51.234;-2.310;2022-10-16T13:58:43;18.20;52.30
65087;DHT22;52094;51.234;-2.310;2022-10-16T14:02:39;18.00;52.60
65087;DHT22;52094;51.234;-2.310;2022-10-16T14:06:22;17.90;53.50
65087;DHT22;52094;51.234;-2.310;2022-10-16T14:10:31;17.90;53.50
65087;DHT22;52094;51.234;-2.310;2022-10-16T14:14:14;17.70;54.10
65087;DHT22;52094;51.234;-2.310;2022-10-16T14:17:58;17.60;54.00
65087;DHT22;52094;51.234;-2.310;2022-10-16T14:21:40;17.50;54.30
65087;DHT22;52094;51.234;-2.310;2022-10-16T14:25:29;17.40;54.80
65087;DHT22;52094;51.234;-2.310;2022-10-16T14:29:18;17.40;55.50
65087;DHT22;52094;51.234;-2.310;2022-10-16T14:33:03;17.40;55.30
65087;DHT22;52094;51.234;-2.310;2022-10-16T14:36:46;17.40;55.30
65087;DHT22;52094;51.234;-2.310;2022-10-16T14:40:33;17.30;55.50
65087;DHT22;52094;51.234;-2.310;2022-10-16T14:44:29;17.30;56.20
65087;DHT22;52094;51.234;-2.310;2022-10-16T14:48:17;17.30;58.50
65087;DHT22;52094;51.234;-2.310;2022-10-16T14:52:01;17.30;57.00
65087;DHT22;52094;51.234;-2.310;2022-10-16T14:55:44;17.30;57.00
65087;DHT22;52094;51.234;-2.310;2022-10-16T14:59:36;17.20;56.60
65087;DHT22;52094;51.234;-2.310;2022-10-16T15:03:19;17.10;57.40
65087;DHT22;52094;51.234;-2.310;2022-10-16T15:07:01;17.10;57.20
65087;DHT22;52094;51.234;-2.310;2022-10-16T15:10:44;17.10;57.70
65087;DHT22;52094;51.234;-2.310;2022-10-16T15:14:27;17.00;57.50
65087;DHT22;52094;51.234;-2.310;2022-10-16T15:18:09;17.00;57.50
65087;DHT22;52094;51.234;-2.310;2022-10-16T15:21:51;16.90;57.90
65087;DHT22;52094;51.234;-2.310;2022-10-16T15:25:38;16.90;57.90
65087;DHT22;52094;51.234;-2.310;2022-10-16T15:29:23;16.80;59.20
65087;DHT22;52094;51.234;-2.310;2022-10-16T15:33:12;16.80;59.50
65087;DHT22;52094;51.234;-2.310;2022-10-16T15:36:54;16.80;60.20
65087;DHT22;52094;51.234;-2.310;2022-10-16T15:40:40;16.70;63.20
65087;DHT22;52094;51.234;-2.310;2022-10-16T15:44:22;16.70;60.00
65087;DHT22;52094;51.234;-2.310;2022-10-16T15:48:11;16.70;62.60
65087;DHT22;52094;51.234;-2.310;2022-10-16T15:51:54;16.70;63.20
65087;DHT22;52094;51.234;-2.310;2022-10-16T15:55:36;16.60;66.80
65087;DHT22;52094;51.234;-2.310;2022-10-16T15:59:19;16.40;66.20
65087;DHT22;52094;51.234;-2.310;2022-10-16T16:03:01;16.20;63.10
65087;DHT22;52094;51.234;-2.310;2022-10-16T16:06:44;16.20;63.40
65087;DHT22;52094;51.234;-2.310;2022-10-16T16:10:26;16.20;63.50
65087;DHT22;52094;51.234;-2.310;2022-10-16T16:14:13;16.10;64.20
65087;DHT22;52094;51.234;-2.310;2022-10-16T16:17:55;16.00;64.80
65087;DHT22;52094;51.234;-2.310;2022-10-16T16:21:38;15.80;68.00
65087;DHT22;52094;51.234;-2.310;2022-10-16T16:25:21;15.60;68.10
65087;DHT22;52094;51.234;-2.310;2022-10-16T16:29:04;15.30;68.40
65087;DHT22;52094;51.234;-2.310;2022-10-16T16:32:46;15.10;69.80
65087;DHT22;52094;51.234;-2.310;2022-10-16T16:36:29;14.90;69.80
65087;DHT22;52094;51.234;-2.310;2022-10-16T16:40:11;14.70;71.10
65087;DHT22;52094;51.234;-2.310;2022-10-16T16:43:54;14.60;74.40
65087;DHT22;52094;51.234;-2.310;2022-10-16T16:47:36;14.60;74.20
65087;DHT22;52094;51.234;-2.310;2022-10-16T16:51:20;14.50;72.50
65087;DHT22;52094;51.234;-2.310;2022-10-16T16:55:03;14.40;73.80
65087;DHT22;52094;51.234;-2.310;2022-10-16T16:58:46;14.30;71.80
65087;DHT22;52094;51.234;-2.310;2022-10-16T17:02:28;14.30;73.80
65087;DHT22;52094;51.234;-2.310;2022-10-16T17:06:12;14.20;77.20
65087;DHT22;52094;51.234;-2.310;2022-10-16T17:09:54;14.20;74.90
65087;DHT22;52094;51.234;-2.310;2022-10-16T17:13:36;14.20;81.00
65087;DHT22;52094;51.234;-2.310;2022-10-16T17:17:19;14.00;78.20
65087;DHT22;52094;51.234;-2.310;2022-10-16T17:21:05;13.90;81.50
65087;DHT22;52094;51.234;-2.310;2022-10-16T17:24:49;13.80;79.00
65087;DHT22;52094;51.234;-2.310;2022-10-16T17:28:35;13.80;76.90
65087;DHT22;52094;51.234;-2.310;2022-10-16T17:32:17;13.70;77.90
65087;DHT22;52094;51.234;-2.310;2022-10-16T17:36:01;13.70;77.40
65087;DHT22;52094;51.234;-2.310;2022-10-16T17:39:43;13.70;78.00
65087;DHT22;52094;51.234;-2.310;2022-10-16T17:43:25;13.70;80.50
65087;DHT22;52094;51.234;-2.310;2022-10-16T17:47:09;13.80;79.80
65087;DHT22;52094;51.234;-2.310;2022-10-16T17:50:51;13.70;78.20
65087;DHT22;52094;51.234;-2.310;2022-10-16T17:54:33;13.80;84.70
65087;DHT22;52094;51.234;-2.310;2022-10-16T17:58:15;13.80;79.20
65087;DHT22;52094;51.234;-2.310;2022-10-16T18:02:00;13.80;80.00
65087;DHT22;52094;51.234;-2.310;2022-10-16T18:05:42;13.90;79.40
65087;DHT22;52094;51.234;-2.310;2022-10-16T18:09:25;13.90;81.20
65087;DHT22;52094;51.234;-2.310;2022-10-16T18:13:07;14.00;79.50
65087;DHT22;52094;51.234;-2.310;2022-10-16T18:16:49;14.00;80.50
65087;DHT22;52094;51.234;-2.310;2022-10-16T18:20:33;14.10;80.10
65087;DHT22;52094;51.234;-2.310;2022-10-16T18:24:16;14.20;81.10
65087;DHT22;52094;51.234;-2.310;2022-10-16T18:27:59;14.20;83.00
65087;DHT22;52094;51.234;-2.310;2022-10-16T18:31:41;14.20;83.70
65087;DHT22;52094;51.234;-2.310;2022-10-16T18:35:24;14.30;83.30
65087;DHT22;52094;51.234;-2.310;2022-10-16T18:39:07;14.50;81.60
65087;DHT22;52094;51.234;-2.310;2022-10-16T18:42:50;14.50;81.50
65087;DHT22;52094;51.234;-2.310;2022-10-16T18:46:34;14.70;81.50
65087;DHT22;52094;51.234;-2.310;2022-10-16T18:50:16;14.70;81.40
65087;DHT22;52094;51.234;-2.310;2022-10-16T18:54:00;14.70;81.30
65087;DHT22;52094;51.234;-2.310;2022-10-16T18:57:42;14.80;82.00
65087;DHT22;52094;51.234;-2.310;2022-10-16T19:01:27;14.80;81.70
65087;DHT22;52094;51.234;-2.310;2022-10-16T19:05:12;14.90;81.60
65087;DHT22;52094;51.234;-2.310;2022-10-16T19:08:56;14.90;81.80
65087;DHT22;52094;51.234;-2.310;2022-10-16T19:12:38;14.90;82.00
65087;DHT22;52094;51.234;-2.310;2022-10-16T19:16:25;15.00;82.30
65087;DHT22;52094;51.234;-2.310;2022-10-16T19:20:08;15.00;82.30
65087;DHT22;52094;51.234;-2.310;2022-10-16T19:23:53;15.10;82.50
65087;DHT22;52094;51.234;-2.310;2022-10-16T19:27:36;15.10;82.70
65087;DHT22;52094;51.234;-2.310;2022-10-16T19:31:20;15.20;82.80
65087;DHT22;52094;51.234;-2.310;2022-10-16T19:35:03;15.20;82.80
65087;DHT22;52094;51.234;-2.310;2022-10-16T19:38:46;15.30;82.90
65087;DHT22;52094;51.234;-2.310;2022-10-16T19:42:28;15.30;82.90
65087;DHT22;52094;51.234;-2.310;2022-10-16T19:46:19;15.40;83.00
65087;DHT22;52094;51.234;-2.310;2022-10-16T19:50:03;15.50;83.40
65087;DHT22;52094;51.234;-2.310;2022-10-16T19:53:47;15.50;83.50
65087;DHT22;52094;51.234;-2.310;2022-10-16T19:57:32;15.60;84.20
65087;DHT22;52094;51.234;-2.310;2022-10-16T20:01:20;15.70;83.70
65087;DHT22;52094;51.234;-2.310;2022-10-16T20:05:03;15.70;84.00
65087;DHT22;52094;51.234;-2.310;2022-10-16T20:08:46;15.70;84.00
65087;DHT22;52094;51.234;-2.310;2022-10-16T20:12:28;15.70;84.20
65087;DHT22;52094;51.234;-2.310;2022-10-16T20:16:12;15.80;84.10
65087;DHT22;52094;51.234;-2.310;2022-10-16T20:19:54;15.90;84.50
65087;DHT22;52094;51.234;-2.310;2022-10-16T20:23:36;15.90;84.30
65087;DHT22;52094;51.234;-2.310;2022-10-16T20:27:18;16.00;84.30
65087;DHT22;52094;51.234;-2.310;2022-10-16T20:31:10;16.00;84.70
65087;DHT22;52094;51.234;-2.310;2022-10-16T20:34:53;16.10;84.60
65087;DHT22;52094;51.234;-2.310;2022-10-16T20:38:37;16.10;85.40
65087;DHT22;52094;51.234;-2.310;2022-10-16T20:42:22;16.10;84.80
65087;DHT22;52094;51.234;-2.310;2022-10-16T20:46:05;16.10;84.90
65087;DHT22;52094;51.234;-2.310;2022-10-16T20:49:51;16.10;85.30
65087;DHT22;52094;51.234;-2.310;2022-10-16T20:53:33;16.10;85.00
65087;DHT22;52094;51.234;-2.310;2022-10-16T20:57:20;16.10;85.00
65087;DHT22;52094;51.234;-2.310;2022-10-16T21:01:11;16.10;85.20
65087;DHT22;52094;51.234;-2.310;2022-10-16T21:04:56;16.20;85.90
65087;DHT22;52094;51.234;-2.310;2022-10-16T21:08:45;16.10;85.20
65087;DHT22;52094;51.234;-2.310;2022-10-16T21:12:27;16.10;85.60
65087;DHT22;52094;51.234;-2.310;2022-10-16T21:16:11;16.10;85.60
65087;DHT22;52094;51.234;-2.310;2022-10-16T21:19:53;16.00;85.80
65087;DHT22;52094;51.234;-2.310;2022-10-16T21:23:35;16.00;86.00
65087;DHT22;52094;51.234;-2.310;2022-10-16T21:27:17;15.90;85.60
65087;DHT22;52094;51.234;-2.310;2022-10-16T21:31:10;16.00;85.90
65087;DHT22;52094;51.234;-2.310;2022-10-16T21:34:52;15.90;86.30
65087;DHT22;52094;51.234;-2.310;2022-10-16T21:38:34;15.90;86.20
65087;DHT22;52094;51.234;-2.310;2022-10-16T21:42:16;16.00;86.40
65087;DHT22;52094;51.234;-2.310;2022-10-16T21:45:58;15.90;86.40
65087;DHT22;52094;51.234;-2.310;2022-10-16T21:49:40;16.00;86.20
65087;DHT22;52094;51.234;-2.310;2022-10-16T21:53:22;16.00;86.00
65087;DHT22;52094;51.234;-2.310;2022-10-16T21:57:04;16.00;86.00
65087;DHT22;52094;51.234;-2.310;2022-10-16T22:00:46;15.90;86.00
65087;DHT22;52094;51.234;-2.310;2022-10-16T22:04:28;15.90;86.30
65087;DHT22;52094;51.234;-2.310;2022-10-16T22:08:10;15.80;86.50
65087;DHT22;52094;51.234;-2.310;2022-10-16T22:11:52;15.80;86.30
65087;DHT22;52094;51.234;-2.310;2022-10-16T22:15:34;15.80;86.30
65087;DHT22;52094;51.234;-2.310;2022-10-16T22:19:18;15.80;86.40
65087;DHT22;52094;51.234;-2.310;2022-10-16T22:23:00;15.70;86.60
65087;DHT22;52094;51.234;-2.310;2022-10-16T22:26:42;15.70;86.30
65087;DHT22;52094;51.234;-2.310;2022-10-16T22:30:25;15.70;86.70
65087;DHT22;52094;51.234;-2.310;2022-10-16T22:34:07;15.70;86.60
65087;DHT22;52094;51.234;-2.310;2022-10-16T22:37:51;15.70;86.40
65087;DHT22;52094;51.234;-2.310;2022-10-16T22:41:33;15.60;86.50
65087;DHT22;52094;51.234;-2.310;2022-10-16T22:45:15;15.60;86.40
65087;DHT22;52094;51.234;-2.310;2022-10-16T22:48:57;15.60;86.60
65087;DHT22;52094;51.234;-2.310;2022-10-16T22:52:39;15.60;86.90
65087;DHT22;52094;51.234;-2.310;2022-10-16T22:56:21;15.60;86.90
65087;DHT22;52094;51.234;-2.310;2022-10-16T23:00:06;15.60;86.90
65087;DHT22;52094;51.234;-2.310;2022-10-16T23:03:48;15.50;86.80
65087;DHT22;52094;51.234;-2.310;2022-10-16T23:07:30;15.50;87.10
65087;DHT22;52094;51.234;-2.310;2022-10-16T23:11:12;15.50;86.60
65087;DHT22;52094;51.234;-2.310;2022-10-16T23:14:54;15.50;86.90
65087;DHT22;52094;51.234;-2.310;2022-10-16T23:18:36;15.40;86.80
65087;DHT22;52094;51.234;-2.310;2022-10-16T23:22:18;15.40;86.80
65087;DHT22;52094;51.234;-2.310;2022-10-16T23:26:01;15.40;86.70
65087;DHT22;52094;51.234;-2.310;2022-10-16T23:29:43;15.30;86.60
65087;DHT22;52094;51.234;-2.310;2022-10-16T23:33:25;15.30;86.80
65087;DHT22;52094;51.234;-2.310;2022-10-16T23:37:07;15.20;86.70
65087;DHT22;52094;51.234;-2.310;2022-10-16T23:40:49;15.20;87.00
65087;DHT22;52094;51.234;-2.310;2022-10-16T23:44:31;15.20;87.20
65087;DHT22;52094;51.234;-2.310;2022-10-16T23:48:13;15.30;87.10
65087;DHT22;52094;51.234;-2.310;2022-10-16T23:51:55;15.30;87.00
65087;DHT22;52094;51.234;-2.310;2022-10-16T23:55:37;15.30;87.10
65087;DHT22;52094;51.234;-2.310;2022-10-16T23:59:19;15.30;87.20
